Time;durP1;ratioP1;P1;durP2;ratioP2;P2;SDS_P1;SDS_P2;PMS_P1;PMS_P2;Temp;Humidity;BMP_temperature;BMP_pressure;BME280_temperature;BME280_humidity;BME280_pressure;Samples;Min_cycle;Max_cycle;Signal;HPM_P1;HPM_P2
2024/01/14 00:00:44;;;;;;;37.33;18.30;;;;;;;-3.44;73.83;98758.34;4932168;28;104273;-77
2024/01/14 00:03:13;;;;;;;42.97;17.60;;;;;;;-3.33;73.35;98753.44;4933127;28;102709;-77
2024/01/14 00:05:41;;;;;;;29.77;14.75;;;;;;;-3.44;73.50;98748.00;4933746;28;102902;-77
2024/01/14 00:08:09;;;;;;;30.63;17.77;;;;;;;-3.39;72.89;98743.44;4935505;28;103176;-77
2024/01/14 00:10:38;;;;;;;38.42;15.07;;;;;;;-3.51;72.76;98743.13;4933169;28;102639;-77
2024/01/14 00:13:06;;;;;;;34.92;20.73;;;;;;;-3.40;73.22;98737.38;4936027;28;102684;-77
2024/01/14 00:15:34;;;;;;;30.38;15.50;;;;;;;-3.49;72.38;98743.03;4935796;28;103418;-77
2024/01/14 00:18:03;;;;;;;28.90;14.40;;;;;;;-3.44;73.21;98732.47;4925829;27;102978;-76
2024/01/14 00:20:31;;;;;;;36.30;21.42;;;;;;;-3.46;73.25;98727.34;4945189;28;104272;-78
2024/01/14 00:22:59;;;;;;;39.42;16.65;;;;;;;-3.57;73.24;98719.31;4935527;28;102540;-78
2024/01/14 00:25:29;;;;;;;37.55;17.45;;;;;;;-3.48;73.59;98717.97;4933404;28;102698;-77
2024/01/14 00:27:58;;;;;;;39.05;16.33;;;;;;;-3.28;73.21;98715.19;4934116;28;103092;-77
2024/01/14 00:30:26;;;;;;;35.45;17.23;;;;;;;-3.52;73.06;98723.31;4932430;28;103487;-75
2024/01/14 00:32:55;;;;;;;40.10;18.80;;;;;;;-3.70;73.65;98724.25;4934467;28;102708;-77
2024/01/14 00:35:23;;;;;;;34.83;19.52;;;;;;;-3.50;73.73;98712.88;4933079;28;104236;-77
2024/01/14 00:37:52;;;;;;;43.03;17.75;;;;;;;-3.71;74.50;98704.47;4932678;28;104465;-76
2024/01/14 00:40:20;;;;;;;44.55;25.50;;;;;;;-3.97;75.31;98709.19;4939966;27;103245;-76
2024/01/14 00:42:48;;;;;;;39.90;17.65;;;;;;;-3.63;74.93;98704.91;4936475;27;102727;-77
2024/01/14 00:45:18;;;;;;;40.58;17.58;;;;;;;-3.65;74.38;98701.56;4937629;28;102583;-74
2024/01/14 00:47:46;;;;;;;39.67;16.95;;;;;;;-3.59;74.37;98688.31;4928277;28;103066;-69
2024/01/14 00:50:14;;;;;;;43.25;18.95;;;;;;;-3.57;74.07;98683.06;4931423;28;103089;-68
2024/01/14 00:52:42;;;;;;;41.50;17.80;;;;;;;-3.58;74.11;98682.19;4929103;28;102658;-68
2024/01/14 00:55:11;;;;;;;35.97;17.65;;;;;;;-3.46;74.18;98669.53;4930967;28;102821;-69
2024/01/14 00:57:43;;;;;;;40.65;18.50;;;;;;;-3.45;73.83;98661.69;4931473;28;104081;-69
2024/01/14 01:00:12;;;;;;;43.50;18.75;;;;;;;-3.67;73.77;98657.66;4934142;28;103242;-69
2024/01/14 01:02:42;;;;;;;42.40;19.10;;;;;;;-3.74;74.26;98655.44;4936295;27;103301;-68
2024/01/14 01:05:10;;;;;;;45.20;19.58;;;;;;;-3.52;74.53;98650.81;4928043;28;103643;-68
2024/01/14 01:07:38;;;;;;;36.42;17.77;;;;;;;-3.77;74.64;98655.59;4925111;28;104232;-69
2024/01/14 01:10:07;;;;;;;40.05;17.25;;;;;;;-3.55;74.74;98644.97;4934941;28;103203;-69
2024/01/14 01:12:45;;;;;;;37.10;17.33;;;;;;;-3.86;74.88;98642.22;4937021;28;103005;-69
2024/01/14 01:15:13;;;;;;;47.88;26.13;;;;;;;-3.81;74.34;98646.31;4931879;28;104334;-69
2024/01/14 01:17:43;;;;;;;43.90;19.23;;;;;;;-3.66;74.59;98637.75;4928169;28;103227;-69
2024/01/14 01:20:12;;;;;;;38.03;17.23;;;;;;;-3.80;74.94;98638.47;4948148;27;104150;-68
2024/01/14 01:22:41;;;;;;;40.60;18.05;;;;;;;-3.67;74.36;98643.84;4934899;27;102642;-77
2024/01/14 01:25:10;;;;;;;37.90;18.27;;;;;;;-3.79;74.42;98631.56;4931967;28;104039;-78
2024/01/14 01:27:39;;;;;;;43.70;18.17;;;;;;;-3.73;74.12;98632.06;4942866;27;104084;-77
2024/01/14 01:30:09;;;;;;;43.70;23.60;;;;;;;-3.52;74.36;98634.47;4934940;28;103341;-76
2024/01/14 01:32:37;;;;;;;40.60;17.67;;;;;;;-3.61;73.95;98628.00;4938381;27;102730;-78
2024/01/14 01:35:08;;;;;;;48.95;25.50;;;;;;;-3.58;74.29;98614.06;4944065;27;102686;-76
2024/01/14 01:37:50;;;;;;;42.25;18.30;;;;;;;-3.82;75.26;98619.63;4946679;28;104196;-77
2024/01/14 01:40:18;;;;;;;42.70;21.20;;;;;;;-3.64;75.15;98609.19;4943524;27;102860;-76
2024/01/14 01:42:54;;;;;;;40.47;17.33;;;;;;;-3.43;74.45;98597.72;4940750;28;103202;-77
2024/01/14 01:45:22;;;;;;;46.30;25.10;;;;;;;-3.49;73.60;98605.81;4940789;28;102820;-76
2024/01/14 01:47:50;;;;;;;37.10;17.77;;;;;;;-3.36;73.45;98600.81;4937411;27;103249;-76
2024/01/14 01:50:21;;;;;;;45.63;18.40;;;;;;;-3.39;74.17;98598.41;4937268;28;103320;-76
2024/01/14 01:53:03;;;;;;;46.30;18.55;;;;;;;-3.34;73.92;98604.13;4937653;27;102717;-77
2024/01/14 01:55:31;;;;;;;48.85;18.95;;;;;;;-3.44;74.13;98597.81;4938007;27;102688;-76
2024/01/14 01:58:05;;;;;;;34.75;16.73;;;;;;;-3.48;74.45;98594.53;4934778;28;104139;-77
2024/01/14 02:00:36;;;;;;;40.47;18.35;;;;;;;-3.54;73.98;98585.34;4935026;27;103311;-76
2024/01/14 02:03:05;;;;;;;41.00;17.48;;;;;;;-3.59;74.66;98587.34;4945095;28;102648;-77
2024/01/14 02:05:39;;;;;;;44.33;18.27;;;;;;;-3.54;73.88;98584.50;4937335;28;104428;-76
2024/01/14 02:08:07;;;;;;;41.38;17.83;;;;;;;-3.85;74.68;98576.63;4933276;28;102757;-76
2024/01/14 02:10:36;;;;;;;44.88;24.55;;;;;;;-3.62;74.40;98571.97;4936684;28;103191;-76
2024/01/14 02:13:05;;;;;;;37.85;17.83;;;;;;;-3.51;74.51;98572.22;4935008;28;102596;-76
2024/01/14 02:15:34;;;;;;;33.20;16.42;;;;;;;-3.44;73.64;98574.50;4934859;28;102675;-77
2024/01/14 02:18:09;;;;;;;42.40;19.85;;;;;;;-3.51;73.53;98564.47;4933449;28;104125;-76
2024/01/14 02:20:38;;;;;;;42.95;18.38;;;;;;;-3.58;74.03;98568.28;4935449;28;103227;-77
2024/01/14 02:23:12;;;;;;;34.17;15.80;;;;;;;-3.55;74.21;98562.09;4928813;27;103003;-77
2024/01/14 02:25:42;;;;;;;37.53;19.23;;;;;;;-3.59;73.47;98558.88;4937339;28;104103;-76
2024/01/14 02:28:11;;;;;;;39.47;18.15;;;;;;;-3.93;75.14;98558.06;4933518;28;103963;-76
2024/01/14 02:30:40;;;;;;;42.55;23.30;;;;;;;-3.80;74.62;98560.81;4930843;28;104205;-69
2024/01/14 02:33:14;;;;;;;36.25;16.42;;;;;;;-3.62;74.47;98556.44;4928176;28;102639;-69
2024/01/14 02:35:49;;;;;;;43.17;18.13;;;;;;;-3.60;73.86;98554.59;4931926;28;102906;-68
2024/01/14 02:38:24;;;;;;;38.90;17.40;;;;;;;-3.69;74.12;98549.94;4947128;27;104127;-68
2024/01/14 02:40:54;;;;;;;38.30;17.73;;;;;;;-3.95;75.07;98552.13;4953995;27;104118;-69
2024/01/14 02:43:26;;;;;;;50.08;19.70;;;;;;;-4.24;75.72;98549.31;4937879;28;102728;-69
2024/01/14 02:46:00;;;;;;;41.13;19.75;;;;;;;-3.98;75.20;98552.31;4945311;27;102772;-69
2024/01/14 02:48:28;;;;;;;44.03;18.35;;;;;;;-3.93;74.99;98541.69;4928091;28;104159;-69
2024/01/14 02:50:56;;;;;;;38.92;15.65;;;;;;;-3.69;74.97;98544.75;4929396;28;104167;-69
2024/01/14 02:53:24;;;;;;;46.17;19.38;;;;;;;-4.04;74.95;98555.19;4930634;28;102675;-68
2024/01/14 02:55:54;;;;;;;39.72;18.67;;;;;;;-3.96;74.88;98547.88;4932908;28;103920;-69
2024/01/14 02:58:22;;;;;;;50.92;19.58;;;;;;;-3.90;75.13;98552.72;4929671;28;104127;-68
2024/01/14 03:00:50;;;;;;;37.97;16.77;;;;;;;-3.93;75.27;98537.38;4926983;27;103994;-68
2024/01/14 03:03:18;;;;;;;47.55;19.08;;;;;;;-3.72;74.68;98542.31;4933010;27;102835;-68
2024/01/14 03:05:47;;;;;;;42.25;20.25;;;;;;;-3.64;73.98;98547.94;4934020;28;102605;-69
2024/01/14 03:08:17;;;;;;;52.40;26.95;;;;;;;-3.93;74.42;98542.53;4922896;28;102964;-68
2024/01/14 03:10:45;;;;;;;40.97;17.52;;;;;;;-4.16;75.72;98541.97;4933326;28;103651;-68
2024/01/14 03:13:15;;;;;;;35.45;16.88;;;;;;;-3.90;74.90;98534.59;4931428;28;102764;-69
2024/01/14 03:15:44;;;;;;;44.38;19.98;;;;;;;-3.83;74.20;98537.72;4933868;27;104025;-68
2024/01/14 03:18:13;;;;;;;44.40;19.80;;;;;;;-3.85;73.73;98542.16;4931752;28;104345;-68
2024/01/14 03:20:41;;;;;;;46.42;23.02;;;;;;;-3.80;74.41;98536.72;4930399;28;103243;-69
2024/01/14 03:23:09;;;;;;;45.10;19.52;;;;;;;-3.98;74.65;98544.53;4918249;27;103340;-68
2024/01/14 03:25:38;;;;;;;39.20;19.08;;;;;;;-4.21;75.81;98549.13;4931864;28;103028;-69
2024/01/14 03:28:06;;;;;;;63.15;30.60;;;;;;;-4.30;76.32;98544.44;4941217;27;103283;-68
2024/01/14 03:30:35;;;;;;;55.03;20.70;;;;;;;-4.40;76.63;98548.41;4937348;27;102965;-69
2024/01/14 03:33:04;;;;;;;49.70;18.70;;;;;;;-4.34;76.37;98548.09;4941101;27;102703;-69
2024/01/14 03:35:32;;;;;;;56.67;22.58;;;;;;;-4.30;76.23;98543.59;4927156;28;103761;-69
2024/01/14 03:38:00;;;;;;;47.88;19.98;;;;;;;-4.16;76.17;98549.72;4932414;27;104217;-68
2024/01/14 03:40:28;;;;;;;38.55;17.08;;;;;;;-4.13;75.80;98540.16;4933578;28;103257;-69
2024/01/14 03:42:56;;;;;;;55.30;28.52;;;;;;;-4.13;76.23;98540.16;4926312;27;102630;-68
2024/01/14 03:45:25;;;;;;;53.28;21.20;;;;;;;-4.56;76.60;98544.03;4938355;28;104104;-68
2024/01/14 03:47:54;;;;;;;44.50;20.92;;;;;;;-4.26;76.06;98539.94;4928985;28;104431;-76
2024/01/14 03:50:23;;;;;;;42.55;18.95;;;;;;;-4.17;75.93;98535.16;4937327;28;103251;-68
2024/01/14 03:52:51;;;;;;;42.35;18.25;;;;;;;-4.25;75.77;98542.44;4931455;28;102721;-68
2024/01/14 03:55:19;;;;;;;40.45;17.92;;;;;;;-4.46;75.82;98535.81;4931887;28;102701;-68
2024/01/14 03:57:47;;;;;;;42.85;19.75;;;;;;;-4.19;75.68;98536.16;4931140;28;104431;-75
2024/01/14 04:00:16;;;;;;;43.45;17.73;;;;;;;-4.19;75.42;98541.31;4933195;28;102971;-68
2024/01/14 04:02:44;;;;;;;44.47;18.67;;;;;;;-4.23;74.63;98535.47;4920452;27;102968;-68
2024/01/14 04:05:13;;;;;;;42.88;20.08;;;;;;;-4.02;74.48;98555.97;4919666;28;102786;-68
2024/01/14 04:07:41;;;;;;;36.30;16.95;;;;;;;-4.09;74.23;98552.00;4933303;28;102987;-68
2024/01/14 04:10:12;;;;;;;37.17;17.30;;;;;;;-4.14;74.35;98554.00;4934034;28;103188;-69
2024/01/14 04:12:40;;;;;;;47.58;24.70;;;;;;;-4.03;74.32;98546.53;4926179;28;102964;-69
2024/01/14 04:15:09;;;;;;;41.17;17.15;;;;;;;-3.95;74.12;98548.72;4931894;28;103783;-69
2024/01/14 04:17:38;;;;;;;39.35;17.45;;;;;;;-3.94;73.67;98551.22;4930534;28;104684;-69
2024/01/14 04:20:08;;;;;;;47.85;17.90;;;;;;;-3.95;73.42;98549.53;4933508;28;103204;-69
2024/01/14 04:22:38;;;;;;;39.15;16.95;;;;;;;-4.16;74.10;98552.31;4927256;28;102999;-69
2024/01/14 04:25:06;;;;;;;32.90;15.07;;;;;;;-3.85;74.02;98545.56;4935992;27;104122;-69
2024/01/14 04:27:35;;;;;;;32.47;14.75;;;;;;;-3.72;73.61;98544.88;4924674;28;104211;-68
2024/01/14 04:30:03;;;;;;;53.13;26.60;;;;;;;-3.76;73.30;98548.56;4932075;28;103323;-68
2024/01/14 04:32:32;;;;;;;45.67;18.75;;;;;;;-3.81;73.93;98558.31;4927978;28;103344;-69
2024/01/14 04:35:00;;;;;;;48.78;20.15;;;;;;;-3.64;73.41;98553.09;4945049;27;102709;-68
2024/01/14 04:37:28;;;;;;;47.95;19.42;;;;;;;-4.24;75.35;98553.66;4927483;28;104098;-69
2024/01/14 04:39:58;;;;;;;52.60;20.33;;;;;;;-4.08;75.55;98551.09;4934578;27;102953;-76
2024/01/14 04:42:26;;;;;;;43.88;20.25;;;;;;;-4.26;76.19;98556.28;4943628;27;102557;-76
2024/01/14 04:44:55;;;;;;;54.88;29.35;;;;;;;-4.10;75.43;98551.19;4936323;28;103842;-76
2024/01/14 04:47:23;;;;;;;43.92;18.23;;;;;;;-4.28;75.56;98555.53;4940893;27;104448;-76
2024/01/14 04:49:51;;;;;;;45.67;19.55;;;;;;;-4.31;75.99;98553.09;4935143;28;103227;-78
2024/01/14 04:52:19;;;;;;;42.75;18.75;;;;;;;-4.28;75.43;98552.97;4934560;28;102578;-75
2024/01/14 04:54:47;;;;;;;41.08;19.05;;;;;;;-4.07;75.25;98550.19;4934667;28;102891;-76
2024/01/14 04:57:17;;;;;;;39.92;17.30;;;;;;;-4.12;74.66;98552.19;4937016;28;104104;-76
2024/01/14 04:59:45;;;;;;;38.47;16.08;;;;;;;-4.02;74.55;98553.38;4933395;28;103694;-76
2024/01/14 05:02:13;;;;;;;42.22;18.10;;;;;;;-4.18;74.19;98554.16;4933732;28;102679;-77
2024/01/14 05:04:41;;;;;;;30.92;15.00;;;;;;;-4.11;74.62;98559.00;4933083;28;102656;-76
2024/01/14 05:07:10;;;;;;;34.20;16.75;;;;;;;-3.89;74.35;98562.16;4935701;28;104235;-77
2024/01/14 05:09:38;;;;;;;42.88;16.70;;;;;;;-3.84;73.84;98552.41;4939461;28;103170;-77
2024/01/14 05:12:07;;;;;;;41.60;17.00;;;;;;;-3.89;73.37;98559.56;4936144;28;102589;-77
2024/01/14 05:14:36;;;;;;;40.70;16.00;;;;;;;-3.78;73.11;98550.41;4938078;28;104024;-77
2024/01/14 05:17:05;;;;;;;37.05;16.60;;;;;;;-3.79;73.05;98549.56;4938374;28;103241;-77
2024/01/14 05:19:33;;;;;;;31.00;15.65;;;;;;;-3.76;73.88;98551.16;4939311;28;103200;-78
2024/01/14 05:22:01;;;;;;;37.08;18.88;;;;;;;-3.86;73.37;98553.41;4943104;28;102630;-77
2024/01/14 05:24:29;;;;;;;38.17;16.02;;;;;;;-3.67;73.28;98553.25;4940329;28;103037;-69
2024/01/14 05:26:58;;;;;;;31.17;15.43;;;;;;;-3.69;73.01;98552.50;4933461;28;104345;-71
2024/01/14 05:29:26;;;;;;;45.28;18.90;;;;;;;-3.77;72.93;98549.47;4936652;28;104591;-69
2024/01/14 05:31:55;;;;;;;44.88;18.70;;;;;;;-3.72;73.09;98542.31;4940104;27;102857;-69
2024/01/14 05:34:23;;;;;;;41.90;17.35;;;;;;;-3.60;73.49;98541.66;4938171;27;103856;-69
2024/01/14 05:36:51;;;;;;;44.17;19.42;;;;;;;-3.61;72.80;98541.75;4933734;28;104237;-69
2024/01/14 05:39:19;;;;;;;36.47;16.92;;;;;;;-3.69;73.42;98545.56;4938838;27;103201;-69
2024/01/14 05:41:48;;;;;;;45.00;24.23;;;;;;;-3.55;72.97;98537.06;4936399;28;102673;-69
2024/01/14 05:44:16;;;;;;;44.53;18.58;;;;;;;-3.70;72.78;98535.31;4934596;28;103834;-69
2024/01/14 05:46:43;;;;;;;44.83;19.02;;;;;;;-3.62;73.07;98534.91;4935270;28;104179;-69
2024/01/14 05:49:13;;;;;;;46.35;19.58;;;;;;;-3.61;73.27;98532.22;4930812;28;102984;-69
2024/01/14 05:51:41;;;;;;;42.20;19.95;;;;;;;-3.64;73.20;98532.41;4931929;28;102601;-71
2024/01/14 05:54:10;;;;;;;46.22;19.35;;;;;;;-3.63;73.23;98528.88;4934303;28;102591;-69
2024/01/14 05:56:38;;;;;;;42.83;19.30;;;;;;;-3.57;72.73;98520.78;4937410;28;105223;-69
2024/01/14 05:59:06;;;;;;;37.03;19.77;;;;;;;-3.52;73.24;98525.72;4932067;28;104142;-69
2024/01/14 06:01:34;;;;;;;41.22;17.67;;;;;;;-3.48;73.10;98516.84;4934205;28;102671;-69
2024/01/14 06:04:02;;;;;;;42.97;18.15;;;;;;;-3.62;72.74;98522.78;4932182;28;104129;-69
2024/01/14 06:06:31;;;;;;;42.00;23.67;;;;;;;-3.62;73.49;98519.38;4934860;28;103840;-69
2024/01/14 06:09:00;;;;;;;44.15;17.85;;;;;;;-3.63;73.47;98515.91;4938164;28;103202;-68
2024/01/14 06:11:28;;;;;;;45.60;18.65;;;;;;;-3.58;73.11;98521.69;4935730;28;102637;-69
2024/01/14 06:13:56;;;;;;;47.70;25.08;;;;;;;-3.51;73.04;98510.09;4936805;28;102683;-69
2024/01/14 06:16:25;;;;;;;45.10;20.00;;;;;;;-3.45;72.93;98519.25;4937584;28;104217;-69
2024/01/14 06:18:52;;;;;;;38.30;17.45;;;;;;;-3.47;72.82;98520.28;4941232;28;103206;-70
2024/01/14 06:21:21;;;;;;;41.72;18.08;;;;;;;-3.53;72.84;98513.69;4939786;28;102771;-69
2024/01/14 06:23:50;;;;;;;51.53;25.58;;;;;;;-3.48;72.91;98510.81;4936847;28;103957;-70
2024/01/14 06:26:18;;;;;;;45.42;21.05;;;;;;;-3.64;73.70;98514.28;4942141;27;103901;-69
2024/01/14 06:28:47;;;;;;;39.03;16.60;;;;;;;-3.58;73.57;98505.31;4942106;28;103206;-77
2024/01/14 06:31:18;;;;;;;55.78;21.70;;;;;;;-3.56;73.17;98509.50;4939839;28;102622;-76
2024/01/14 06:33:46;;;;;;;40.25;21.10;;;;;;;-3.51;72.71;98502.31;4940232;28;104014;-77
2024/01/14 06:36:14;;;;;;;44.85;20.08;;;;;;;-3.49;72.76;98494.47;4943533;28;103386;-77
2024/01/14 06:38:42;;;;;;;45.78;18.92;;;;;;;-3.58;73.10;98497.56;4952107;27;103298;-78
2024/01/14 06:41:17;;;;;;;46.10;19.65;;;;;;;-3.61;73.29;98485.63;4940133;28;102656;-77
2024/01/14 06:43:45;;;;;;;45.20;18.15;;;;;;;-3.72;73.09;98482.78;4945173;28;103235;-77
2024/01/14 06:46:13;;;;;;;39.92;22.85;;;;;;;-3.52;73.10;98485.09;4940215;28;103228;-77
2024/01/14 06:48:42;;;;;;;49.08;19.88;;;;;;;-3.51;72.40;98476.44;4942301;28;103074;-77
2024/01/14 06:51:10;;;;;;;47.13;17.80;;;;;;;-3.54;72.26;98476.63;4940555;28;103860;-77
2024/01/14 06:53:38;;;;;;;46.38;19.48;;;;;;;-3.56;72.54;98468.09;4941945;28;103266;-77
2024/01/14 06:56:06;;;;;;;44.00;19.85;;;;;;;-3.67;72.52;98467.81;4941646;28;103285;-77
2024/01/14 06:58:36;;;;;;;45.22;19.90;;;;;;;-3.74;73.06;98463.91;4942718;28;103229;-78
2024/01/14 07:01:04;;;;;;;46.63;19.13;;;;;;;-3.67;73.13;98460.06;4952753;28;102695;-77
2024/01/14 07:03:36;;;;;;;42.80;19.05;;;;;;;-3.72;72.40;98454.31;4939297;28;104132;-77
2024/01/14 07:06:05;;;;;;;45.35;18.90;;;;;;;-3.78;72.92;98442.53;4936383;28;105213;-77
2024/01/14 07:08:33;;;;;;;37.60;18.20;;;;;;;-3.78;73.04;98441.72;4938229;28;103010;-78
2024/01/14 07:11:01;;;;;;;37.58;17.42;;;;;;;-3.72;72.62;98436.19;4941366;28;102669;-76
2024/01/14 07:13:30;;;;;;;38.40;17.88;;;;;;;-3.71;72.32;98432.69;4930687;28;102730;-76
2024/01/14 07:15:59;;;;;;;37.92;20.33;;;;;;;-3.67;72.15;98432.44;4929885;28;104163;-69
2024/01/14 07:18:27;;;;;;;39.58;17.23;;;;;;;-3.81;71.97;98421.16;4929056;28;103163;-69
2024/01/14 07:20:55;;;;;;;38.05;17.02;;;;;;;-3.87;71.79;98423.16;4928725;28;102840;-70
2024/01/14 07:23:23;;;;;;;36.00;15.70;;;;;;;-3.75;71.73;98431.19;4929144;28;103155;-69
2024/01/14 07:26:15;;;;;;;36.15;16.88;;;;;;;-3.77;71.51;98427.84;4933193;28;104077;-70
2024/01/14 07:28:43;;;;;;;29.00;14.38;;;;;;;-3.76;71.94;98429.50;4930550;27;104324;-69
2024/01/14 07:31:20;;;;;;;33.35;18.10;;;;;;;-3.74;71.16;98422.50;4941317;28;102703;-69
2024/01/14 07:33:50;;;;;;;34.28;16.58;;;;;;;-3.78;71.22;98436.53;4942460;27;104305;-70
2024/01/14 07:36:20;;;;;;;34.35;14.27;;;;;;;-3.70;71.12;98429.19;4924346;28;104116;-69
2024/01/14 07:38:49;;;;;;;37.15;16.63;;;;;;;-3.81;70.98;98426.34;4941954;27;104237;-77
2024/01/14 07:41:17;;;;;;;44.28;17.52;;;;;;;-3.87;71.28;98427.53;4933782;28;102671;-76
2024/01/14 07:43:45;;;;;;;34.45;15.30;;;;;;;-3.88;71.72;98421.53;4932746;28;102996;-77
2024/01/14 07:46:14;;;;;;;51.47;24.92;;;;;;;-3.71;71.46;98414.56;4934542;28;103219;-77
2024/01/14 07:48:43;;;;;;;37.28;21.60;;;;;;;-3.69;71.29;98408.38;4932563;28;103167;-77
2024/01/14 07:51:11;;;;;;;41.97;18.60;;;;;;;-3.63;71.11;98408.97;4930158;27;102735;-70
2024/01/14 07:53:39;;;;;;;37.70;16.88;;;;;;;-3.64;71.11;98408.13;4924586;28;102729;-69
2024/01/14 07:56:09;;;;;;;34.63;15.75;;;;;;;-3.58;71.13;98405.19;4928818;28;104327;-69
2024/01/14 07:58:37;;;;;;;38.53;17.58;;;;;;;-3.58;70.99;98410.38;4930821;28;103999;-69
2024/01/14 08:01:06;;;;;;;37.13;15.75;;;;;;;-3.66;70.47;98394.44;4928692;28;102653;-69
2024/01/14 08:03:36;;;;;;;40.72;17.45;;;;;;;-3.66;70.85;98391.84;4937253;28;103714;-70
2024/01/14 08:06:05;;;;;;;41.10;19.25;;;;;;;-3.60;71.08;98393.25;4939368;28;103437;-69
2024/01/14 08:08:35;;;;;;;41.63;18.33;;;;;;;-3.67;70.63;98393.63;4934605;28;103135;-69
2024/01/14 08:11:03;;;;;;;40.80;18.63;;;;;;;-3.71;70.69;98386.09;4933544;27;102920;-69
2024/01/14 08:13:32;;;;;;;45.55;24.63;;;;;;;-3.63;71.35;98390.84;4943157;27;103928;-69
2024/01/14 08:16:00;;;;;;;34.13;16.75;;;;;;;-3.66;70.98;98389.25;4935649;28;104304;-69
2024/01/14 08:18:30;;;;;;;42.80;19.02;;;;;;;-3.62;71.21;98390.75;4935222;28;104423;-69
2024/01/14 08:21:01;;;;;;;39.25;17.98;;;;;;;-3.69;71.19;98379.09;4934535;28;103227;-69
2024/01/14 08:23:32;;;;;;;38.08;20.45;;;;;;;-3.77;70.92;98387.28;4930824;28;103782;-69
2024/01/14 08:26:02;;;;;;;39.63;17.58;;;;;;;-3.66;71.28;98382.31;4935207;28;104421;-69
2024/01/14 08:28:32;;;;;;;40.72;18.60;;;;;;;-3.55;70.66;98379.16;4936479;28;104552;-69
2024/01/14 08:31:00;;;;;;;42.60;17.77;;;;;;;-3.60;70.65;98373.38;4929066;28;102636;-69
2024/01/14 08:33:29;;;;;;;41.17;18.08;;;;;;;-3.48;70.66;98391.72;4928306;27;102856;-76
2024/01/14 08:35:58;;;;;;;41.95;22.73;;;;;;;-3.29;70.28;98381.97;4941985;27;103017;-69
2024/01/14 08:38:27;;;;;;;32.58;17.52;;;;;;;-3.34;70.10;98384.00;4932145;28;103199;-69
2024/01/14 08:40:56;;;;;;;30.98;14.18;;;;;;;-3.31;69.99;98388.16;4936860;27;103052;-68
2024/01/14 08:43:24;;;;;;;36.05;17.77;;;;;;;-3.33;70.14;98386.53;4945177;27;104602;-69
2024/01/14 08:45:52;;;;;;;42.55;17.55;;;;;;;-3.27;69.87;98379.31;4927551;28;104173;-69
2024/01/14 08:48:20;;;;;;;37.65;17.35;;;;;;;-3.31;69.80;98378.66;4935239;28;103998;-76
2024/01/14 08:50:49;;;;;;;37.85;18.17;;;;;;;-3.11;69.88;98376.66;4931962;27;102662;-77
2024/01/14 08:53:17;;;;;;;33.72;15.90;;;;;;;-3.02;69.60;98376.94;4926321;27;103813;-70
2024/01/14 08:55:46;;;;;;;32.38;19.92;;;;;;;-2.83;69.49;98368.06;4944435;28;104379;-69
2024/01/14 08:58:14;;;;;;;39.75;19.20;;;;;;;-2.68;68.99;98371.53;4939563;27;103268;-69
2024/01/14 09:00:42;;;;;;;36.95;20.55;;;;;;;-2.57;68.83;98369.13;4935628;28;102729;-70
2024/01/14 09:03:10;;;;;;;36.90;16.88;;;;;;;-2.50;67.92;98365.22;4933500;28;102619;-69
2024/01/14 09:05:41;;;;;;;46.63;18.92;;;;;;;-2.47;67.95;98358.19;4931967;27;104246;-77
2024/01/14 09:08:13;;;;;;;40.95;18.92;;;;;;;-2.51;67.72;98353.16;4930097;27;104124;-77
2024/01/14 09:10:41;;;;;;;38.30;23.17;;;;;;;-2.40;68.16;98349.06;4932894;28;102707;-75
2024/01/14 09:13:10;;;;;;;30.98;17.88;;;;;;;-2.29;68.30;98351.84;4929152;27;103773;-69
2024/01/14 09:15:46;;;;;;;39.42;17.77;;;;;;;-2.25;67.61;98348.13;4908881;27;104005;-70
2024/01/14 09:18:20;;;;;;;38.40;18.10;;;;;;;-2.20;67.26;98348.69;4950629;27;103239;-77
2024/01/14 09:20:51;;;;;;;43.40;19.67;;;;;;;-2.18;66.73;98336.44;4935576;28;103886;-69
2024/01/14 09:23:19;;;;;;;36.22;22.02;;;;;;;-1.93;67.28;98345.25;4929947;27;103087;-69
2024/01/14 09:25:53;;;;;;;43.78;23.40;;;;;;;-1.76;66.67;98338.16;4930400;28;104220;-76
2024/01/14 09:28:24;;;;;;;38.28;21.63;;;;;;;-1.79;66.45;98330.59;4940271;27;103074;-76
2024/01/14 09:30:52;;;;;;;38.97;21.75;;;;;;;-1.72;66.19;98335.25;4934638;28;103128;-76
2024/01/14 09:33:20;;;;;;;37.33;21.83;;;;;;;-1.94;66.11;98329.78;4941817;27;102711;-70
2024/01/14 09:35:49;;;;;;;41.80;24.35;;;;;;;-2.05;66.33;98328.69;4927948;27;103191;-73
2024/01/14 09:38:19;;;;;;;38.63;23.23;;;;;;;-2.07;66.40;98334.91;4940300;27;103284;-78
2024/01/14 09:40:54;;;;;;;39.70;23.75;;;;;;;-2.00;66.15;98325.81;4931347;27;102758;-76
2024/01/14 09:43:26;;;;;;;41.78;24.00;;;;;;;-1.90;66.17;98320.88;4936204;28;104133;-70
2024/01/14 09:45:54;;;;;;;38.50;22.65;;;;;;;-1.96;66.42;98329.88;4926726;27;104281;-77
2024/01/14 09:48:22;;;;;;;43.25;22.75;;;;;;;-1.84;65.90;98328.28;4937756;28;103297;-77
2024/01/14 09:50:54;;;;;;;40.60;18.92;;;;;;;-1.93;65.58;98337.47;4935582;28;102677;-79
2024/01/14 09:53:23;;;;;;;35.30;19.13;;;;;;;-1.90;65.86;98337.28;4941225;28;103132;-70
2024/01/14 09:55:53;;;;;;;38.83;21.73;;;;;;;-1.78;65.60;98324.44;4936403;28;103232;-75
2024/01/14 09:58:21;;;;;;;44.97;25.92;;;;;;;-1.91;65.10;98317.44;4927008;27;104939;-70
2024/01/14 10:00:53;;;;;;;38.92;22.00;;;;;;;-1.82;65.04;98308.25;4942515;27;102659;-71
2024/01/14 10:03:22;;;;;;;39.85;21.98;;;;;;;-1.73;65.38;98301.59;4934986;28;104039;-69
2024/01/14 10:05:53;;;;;;;41.25;23.40;;;;;;;-1.83;65.52;98297.00;4936856;28;104104;-69
2024/01/14 10:08:25;;;;;;;41.17;23.98;;;;;;;-1.62;64.41;98288.75;4935766;28;104844;-76
2024/01/14 10:10:53;;;;;;;33.15;20.45;;;;;;;-1.36;64.35;98278.41;4934199;28;102675;-76
2024/01/14 10:13:26;;;;;;;40.85;22.85;;;;;;;-1.36;63.83;98278.41;4935875;27;104006;-75
2024/01/14 10:15:55;;;;;;;39.78;23.35;;;;;;;-1.20;63.80;98279.00;4938829;28;103275;-69
2024/01/14 10:18:29;;;;;;;41.83;22.15;;;;;;;-1.22;63.11;98274.84;4930977;27;104137;-76
2024/01/14 10:21:00;;;;;;;39.45;22.88;;;;;;;-1.08;63.61;98281.72;4942812;27;102636;-69
2024/01/14 10:23:29;;;;;;;39.75;23.42;;;;;;;-1.04;63.05;98277.97;4940830;28;103843;-75
2024/01/14 10:26:01;;;;;;;36.78;20.23;;;;;;;-0.86;62.40;98283.69;4935743;28;103979;-76
2024/01/14 10:28:33;;;;;;;39.65;22.23;;;;;;;-0.98;62.38;98276.72;4939359;28;104271;-71
2024/01/14 10:31:03;;;;;;;44.42;23.05;;;;;;;-1.01;62.97;98267.34;4941638;28;102590;-70
2024/01/14 10:33:33;;;;;;;37.83;22.10;;;;;;;-1.00;62.41;98263.81;4939468;28;102971;-72
2024/01/14 10:36:06;;;;;;;39.78;23.20;;;;;;;-0.80;61.64;98259.00;4942722;28;104556;-76
2024/01/14 10:38:46;;;;;;;41.85;24.25;;;;;;;-0.79;62.16;98252.88;4942456;28;104091;-75
2024/01/14 10:41:18;;;;;;;37.25;21.70;;;;;;;-0.80;61.94;98248.63;4947062;27;103145;-69
2024/01/14 10:43:54;;;;;;;35.58;21.63;;;;;;;-0.72;61.79;98248.91;4937372;27;104564;-75
2024/01/14 10:46:25;;;;;;;37.88;21.70;;;;;;;-0.85;62.21;98241.97;4939224;28;103320;-77
2024/01/14 10:49:03;;;;;;;38.20;21.63;;;;;;;-0.49;60.93;98228.25;4932342;28;104595;-71
2024/01/14 10:51:38;;;;;;;42.60;22.65;;;;;;;-0.47;60.69;98215.94;4941256;28;102628;-71
2024/01/14 10:54:13;;;;;;;38.20;21.17;;;;;;;-0.29;60.50;98212.00;4939090;28;103783;-76
2024/01/14 10:56:48;;;;;;;37.15;21.38;;;;;;;-0.20;59.70;98205.31;4940271;28;103227;-75
2024/01/14 10:59:17;;;;;;;39.70;22.90;;;;;;;0.11;59.64;98209.09;4940962;28;103273;-76
2024/01/14 11:01:50;;;;;;;35.55;20.65;;;;;;;0.32;58.96;98201.44;4941658;28;102672;-75
2024/01/14 11:04:19;;;;;;;39.55;22.15;;;;;;;0.36;58.58;98190.81;4937797;27;102488;-76
2024/01/14 11:06:48;;;;;;;37.17;20.83;;;;;;;0.77;58.11;98187.66;4933565;28;104065;-75
2024/01/14 11:09:17;;;;;;;32.78;19.02;;;;;;;0.83;57.69;98184.53;4937393;28;104244;-75
2024/01/14 11:11:56;;;;;;;36.97;21.58;;;;;;;1.06;57.58;98179.34;4942865;27;103020;-74
2024/01/14 11:14:35;;;;;;;33.22;18.80;;;;;;;1.08;57.93;98177.41;4940545;28;102652;-70
2024/01/14 11:17:19;;;;;;;38.58;22.73;;;;;;;0.85;57.48;98170.56;4943373;28;102922;-71
2024/01/14 11:19:50;;;;;;;37.83;20.23;;;;;;;1.20;56.33;98165.19;4949715;27;103353;-76